Time;durP1;ratioP1;P1;durP2;ratioP2;P2;SDS_P1;SDS_P2;PMS_P1;PMS_P2;Temp;Humidity;BMP_temperature;BMP_pressure;BME280_temperature;BME280_humidity;BME280_pressure;Samples;Min_cycle;Max_cycle;Signal;HPM_P1;HPM_P2
2023/05/31 00:01:26;;;;;;;7.78;2.67;;;;;;;;;;5019946;28;20037;-74
2023/05/31 00:03:52;;;;;;;6.50;2.33;;;;;;;;;;5034632;28;20108;-74
2023/05/31 00:06:17;;;;;;;5.70;2.70;;;;;;;;;;5036358;28;20045;-75
2023/05/31 00:08:43;;;;;;;7.45;3.05;;;;;;;;;;5036493;28;20061;-75
2023/05/31 00:11:10;;;;;;;7.43;2.70;;;;;;;;;;5036507;28;20033;-75
2023/05/31 00:13:38;;;;;;;7.60;2.60;;;;;;;;;;5035887;28;20037;-74
2023/05/31 00:16:05;;;;;;;11.88;2.80;;;;;;;;;;5035360;28;20025;-74
2023/05/31 00:18:30;;;;;;;4.82;2.78;;;;;;;;;;5021128;28;20053;-74
2023/05/31 00:20:56;;;;;;;7.55;3.35;;;;;;;;;;5018486;28;20026;-76
2023/05/31 00:23:22;;;;;;;7.80;2.42;;;;;;;;;;5017630;28;20127;-75
2023/05/31 00:25:47;;;;;;;8.13;2.50;;;;;;;;;;5017819;28;20030;-75
2023/05/31 00:28:13;;;;;;;4.95;2.60;;;;;;;;;;5016566;28;20552;-76
2023/05/31 00:30:40;;;;;;;8.73;2.50;;;;;;;;;;5015612;28;20137;-75
2023/05/31 00:33:05;;;;;;;10.00;3.28;;;;;;;;;;5019073;28;20029;-75
2023/05/31 00:35:31;;;;;;;7.07;2.83;;;;;;;;;;5036369;28;20489;-76
2023/05/31 00:37:57;;;;;;;9.57;2.67;;;;;;;;;;5036688;28;20109;-75
2023/05/31 00:40:23;;;;;;;7.75;2.83;;;;;;;;;;5021431;28;20102;-75
2023/05/31 00:42:48;;;;;;;6.63;2.70;;;;;;;;;;5003693;28;20037;-78
2023/05/31 00:45:14;;;;;;;4.88;2.60;;;;;;;;;;5019893;28;20080;-76
2023/05/31 00:47:41;;;;;;;7.65;2.38;;;;;;;;;;5035688;28;20037;-76
2023/05/31 00:50:07;;;;;;;7.80;3.28;;;;;;;;;;5035941;28;20030;-76
2023/05/31 00:52:34;;;;;;;11.00;3.17;;;;;;;;;;5040021;28;20026;-76
2023/05/31 00:55:02;;;;;;;8.95;2.72;;;;;;;;;;5039972;28;20105;-76
2023/05/31 00:57:27;;;;;;;8.98;2.75;;;;;;;;;;5039100;28;20057;-74
2023/05/31 00:59:53;;;;;;;5.03;2.80;;;;;;;;;;5037612;28;20021;-75
2023/05/31 01:02:19;;;;;;;6.05;2.78;;;;;;;;;;5036554;28;20056;-76
2023/05/31 01:04:45;;;;;;;8.38;2.95;;;;;;;;;;5024781;28;20045;-76
2023/05/31 01:07:11;;;;;;;4.45;2.72;;;;;;;;;;5041435;28;20108;-75
2023/05/31 01:09:42;;;;;;;8.98;2.83;;;;;;;;;;5039239;28;20026;-76
2023/05/31 01:12:21;;;;;;;4.20;2.67;;;;;;;;;;5038856;28;20041;-75
2023/05/31 01:15:13;;;;;;;8.05;3.13;;;;;;;;;;5039206;28;20089;-76
2023/05/31 01:17:49;;;;;;;8.82;2.70;;;;;;;;;;5021495;28;20038;-75
2023/05/31 01:20:17;;;;;;;8.25;2.75;;;;;;;;;;5020019;28;20376;-76
2023/05/31 01:23:04;;;;;;;4.32;2.65;;;;;;;;;;5036846;28;20033;-74
2023/05/31 01:25:48;;;;;;;6.07;2.40;;;;;;;;;;5019687;28;20045;-75
2023/05/31 01:28:15;;;;;;;6.28;2.65;;;;;;;;;;5024464;28;20068;-76
2023/05/31 01:30:44;;;;;;;6.65;2.65;;;;;;;;;;5024720;28;20026;-76
2023/05/31 01:33:11;;;;;;;7.43;3.00;;;;;;;;;;5043835;28;20030;-75
2023/05/31 01:35:37;;;;;;;7.00;2.67;;;;;;;;;;5049010;28;20577;-75
2023/05/31 01:38:02;;;;;;;3.78;2.30;;;;;;;;;;5048120;28;20030;-77
2023/05/31 01:40:29;;;;;;;6.35;2.42;;;;;;;;;;5048138;28;20032;-74
2023/05/31 01:42:55;;;;;;;10.95;4.70;;;;;;;;;;5033300;28;20022;-75
2023/05/31 01:45:23;;;;;;;6.28;3.33;;;;;;;;;;5049066;28;20025;-75
2023/05/31 01:47:52;;;;;;;8.90;2.90;;;;;;;;;;5028028;28;20033;-75
2023/05/31 01:50:19;;;;;;;14.35;3.50;;;;;;;;;;5042485;28;20069;-76
2023/05/31 01:52:46;;;;;;;8.05;2.78;;;;;;;;;;5039945;28;20494;-76
2023/05/31 01:55:12;;;;;;;5.03;2.47;;;;;;;;;;5023548;28;20068;-76
2023/05/31 01:57:40;;;;;;;7.88;2.95;;;;;;;;;;5021313;28;20128;-75
2023/05/31 02:00:12;;;;;;;5.65;2.80;;;;;;;;;;5020559;28;20561;-77
2023/05/31 02:02:42;;;;;;;10.18;3.00;;;;;;;;;;5020411;28;20089;-76
2023/05/31 02:05:13;;;;;;;7.72;3.08;;;;;;;;;;5035169;28;20044;-76
2023/05/31 02:07:42;;;;;;;4.45;2.75;;;;;;;;;;5019368;28;20398;-75
2023/05/31 02:10:08;;;;;;;4.32;2.80;;;;;;;;;;5035017;28;20046;-76
2023/05/31 02:12:34;;;;;;;5.25;2.50;;;;;;;;;;5020825;28;20041;-77
2023/05/31 02:15:00;;;;;;;5.32;2.65;;;;;;;;;;5033777;28;20057;-75
2023/05/31 02:17:28;;;;;;;10.52;3.15;;;;;;;;;;5033751;28;20036;-76
2023/05/31 02:19:55;;;;;;;6.55;2.75;;;;;;;;;;5017428;28;20026;-75
2023/05/31 02:22:22;;;;;;;5.43;2.60;;;;;;;;;;5034729;28;20077;-74
2023/05/31 02:24:48;;;;;;;13.85;3.30;;;;;;;;;;5018008;28;20040;-74
2023/05/31 02:27:14;;;;;;;5.22;2.90;;;;;;;;;;5018304;28;20042;-76
2023/05/31 02:29:40;;;;;;;9.63;3.60;;;;;;;;;;5032828;28;20041;-75
2023/05/31 02:32:06;;;;;;;6.55;2.45;;;;;;;;;;5017554;28;20103;-75
2023/05/31 02:34:33;;;;;;;5.13;2.47;;;;;;;;;;5032171;28;20034;-73
2023/05/31 02:37:00;;;;;;;7.72;2.60;;;;;;;;;;5016528;28;20049;-77
2023/05/31 02:39:26;;;;;;;4.95;2.35;;;;;;;;;;5000046;28;20030;-74
2023/05/31 02:41:51;;;;;;;6.68;3.00;;;;;;;;;;5032114;28;20402;-75
2023/05/31 02:44:17;;;;;;;7.38;2.95;;;;;;;;;;5020774;28;20044;-74
2023/05/31 02:46:43;;;;;;;8.82;2.83;;;;;;;;;;5019530;28;20034;-74
2023/05/31 02:49:09;;;;;;;7.38;3.10;;;;;;;;;;5036302;28;20030;-74
2023/05/31 02:51:35;;;;;;;5.90;2.85;;;;;;;;;;5035632;28;20025;-74
2023/05/31 02:54:01;;;;;;;6.75;2.95;;;;;;;;;;5021382;28;20053;-75
2023/05/31 02:56:26;;;;;;;4.93;2.53;;;;;;;;;;5020540;28;20096;-75
2023/05/31 02:58:52;;;;;;;7.00;3.15;;;;;;;;;;5037025;28;20478;-74
2023/05/31 03:01:18;;;;;;;6.22;3.17;;;;;;;;;;5021855;28;20033;-75
2023/05/31 03:03:44;;;;;;;9.00;2.70;;;;;;;;;;5021446;28;20041;-75
2023/05/31 03:06:11;;;;;;;8.00;2.83;;;;;;;;;;5022933;28;20496;-75
2023/05/31 03:08:37;;;;;;;7.63;3.35;;;;;;;;;;5038851;28;20037;-74
2023/05/31 03:11:03;;;;;;;5.70;2.63;;;;;;;;;;5021377;28;20033;-75
2023/05/31 03:13:28;;;;;;;9.95;2.80;;;;;;;;;;5020134;28;20069;-73
2023/05/31 03:15:54;;;;;;;6.72;3.17;;;;;;;;;;5020614;28;20029;-75
2023/05/31 03:18:20;;;;;;;7.40;3.03;;;;;;;;;;5036678;28;20034;-75
2023/05/31 03:20:46;;;;;;;5.35;2.88;;;;;;;;;;5020889;28;20048;-74
2023/05/31 03:23:13;;;;;;;6.32;3.17;;;;;;;;;;5020999;28;20033;-74
2023/05/31 03:25:38;;;;;;;11.23;3.72;;;;;;;;;;5019983;28;20043;-74
2023/05/31 03:28:05;;;;;;;5.30;2.83;;;;;;;;;;5021224;28;20030;-75
2023/05/31 03:30:33;;;;;;;4.47;2.67;;;;;;;;;;5035979;28;20112;-75
2023/05/31 03:32:59;;;;;;;5.35;2.70;;;;;;;;;;5022669;28;20100;-75
2023/05/31 03:35:24;;;;;;;7.68;2.95;;;;;;;;;;5021703;28;20030;-75
2023/05/31 03:37:52;;;;;;;7.20;2.85;;;;;;;;;;5022811;28;20044;-74
2023/05/31 03:40:18;;;;;;;7.50;3.00;;;;;;;;;;5021717;28;20081;-76
2023/05/31 03:42:44;;;;;;;5.80;2.47;;;;;;;;;;5036325;28;20709;-76
2023/05/31 03:45:11;;;;;;;15.40;3.38;;;;;;;;;;5021041;28;20037;-73
2023/05/31 03:47:37;;;;;;;7.85;3.20;;;;;;;;;;5005129;28;20041;-73
2023/05/31 03:50:06;;;;;;;4.05;2.58;;;;;;;;;;5021552;28;20026;-75
2023/05/31 03:52:37;;;;;;;8.60;2.65;;;;;;;;;;5022200;28;20033;-73
2023/05/31 03:55:06;;;;;;;7.65;3.28;;;;;;;;;;5036320;28;20097;-74
2023/05/31 03:57:32;;;;;;;5.28;2.95;;;;;;;;;;5019645;28;20386;-75
2023/05/31 03:59:59;;;;;;;4.63;2.50;;;;;;;;;;5019648;28;20046;-75
2023/05/31 04:02:25;;;;;;;5.43;2.58;;;;;;;;;;5037127;28;20030;-75
2023/05/31 04:04:51;;;;;;;10.90;3.05;;;;;;;;;;5038650;28;20113;-75
2023/05/31 04:07:17;;;;;;;6.28;3.10;;;;;;;;;;5019302;28;20045;-75
2023/05/31 04:09:43;;;;;;;9.32;3.40;;;;;;;;;;5035892;28;20033;-75
2023/05/31 04:12:09;;;;;;;8.52;2.85;;;;;;;;;;5035840;28;20034;-74
2023/05/31 04:14:35;;;;;;;7.35;2.80;;;;;;;;;;5020205;28;20033;-75
2023/05/31 04:17:02;;;;;;;7.38;3.55;;;;;;;;;;5034432;28;20037;-74
2023/05/31 04:19:28;;;;;;;4.70;2.92;;;;;;;;;;5022428;28;20030;-75
2023/05/31 04:21:55;;;;;;;10.30;3.38;;;;;;;;;;5025259;28;20033;-74
2023/05/31 04:24:20;;;;;;;9.40;3.38;;;;;;;;;;5041418;28;20482;-75
2023/05/31 04:26:48;;;;;;;9.80;3.63;;;;;;;;;;5040773;28;20038;-75
2023/05/31 04:29:13;;;;;;;4.78;2.78;;;;;;;;;;5041523;28;20021;-74
2023/05/31 04:31:40;;;;;;;10.45;3.20;;;;;;;;;;5026079;28;20048;-75
2023/05/31 04:34:06;;;;;;;13.57;3.80;;;;;;;;;;5042492;28;20080;-75
2023/05/31 04:36:35;;;;;;;12.27;4.40;;;;;;;;;;5039606;28;20754;-74
2023/05/31 04:39:00;;;;;;;6.65;3.25;;;;;;;;;;5024188;28;20113;-75
2023/05/31 04:41:28;;;;;;;7.72;3.05;;;;;;;;;;5023348;28;20030;-74
2023/05/31 04:43:56;;;;;;;15.10;3.35;;;;;;;;;;5023662;28;20065;-74
2023/05/31 04:46:24;;;;;;;8.18;3.63;;;;;;;;;;5009769;28;20037;-74
2023/05/31 04:48:51;;;;;;;7.43;3.67;;;;;;;;;;5026880;28;20030;-74
2023/05/31 04:51:17;;;;;;;10.00;3.67;;;;;;;;;;5043460;28;20037;-76
2023/05/31 04:53:45;;;;;;;12.18;3.55;;;;;;;;;;5025920;28;20046;-74
2023/05/31 04:56:12;;;;;;;7.50;3.17;;;;;;;;;;5027047;28;20156;-75
2023/05/31 04:58:39;;;;;;;6.82;3.95;;;;;;;;;;5026035;28;20033;-75
2023/05/31 05:01:06;;;;;;;8.02;3.70;;;;;;;;;;5025305;28;20030;-74
2023/05/31 05:03:32;;;;;;;66.47;7.22;;;;;;;;;;5025063;28;20077;-75
2023/05/31 05:06:01;;;;;;;6.60;3.60;;;;;;;;;;5024608;28;20076;-74
2023/05/31 05:08:27;;;;;;;15.68;3.80;;;;;;;;;;5015952;28;20041;-73
2023/05/31 05:10:53;;;;;;;8.55;4.07;;;;;;;;;;5016030;28;20022;-72
2023/05/31 05:13:20;;;;;;;6.95;4.28;;;;;;;;;;5014204;28;20049;-73
2023/05/31 05:15:46;;;;;;;7.75;3.88;;;;;;;;;;5016048;28;20026;-73
2023/05/31 05:18:12;;;;;;;15.20;5.13;;;;;;;;;;5016233;28;20030;-72
2023/05/31 05:20:38;;;;;;;7.68;4.20;;;;;;;;;;5006654;28;20529;-73
2023/05/31 05:23:07;;;;;;;8.77;3.80;;;;;;;;;;5016987;28;20021;-72
2023/05/31 05:25:34;;;;;;;11.52;3.47;;;;;;;;;;4995793;28;20149;-74
2023/05/31 05:28:03;;;;;;;9.13;3.92;;;;;;;;;;5010668;28;20138;-75
2023/05/31 05:30:36;;;;;;;8.05;3.47;;;;;;;;;;5017228;28;20015;-74
2023/05/31 05:33:05;;;;;;;7.05;4.00;;;;;;;;;;5004649;28;20026;-74
2023/05/31 05:35:31;;;;;;;10.95;3.95;;;;;;;;;;5008580;28;20398;-74
2023/05/31 05:37:59;;;;;;;4.60;3.50;;;;;;;;;;5021000;28;20498;-73
2023/05/31 05:40:26;;;;;;;8.43;3.97;;;;;;;;;;5014321;28;20118;-72
2023/05/31 05:42:54;;;;;;;6.70;3.35;;;;;;;;;;5006390;28;20041;-75
2023/05/31 05:45:20;;;;;;;11.77;3.97;;;;;;;;;;4993560;28;20140;-72
2023/05/31 05:47:55;;;;;;;9.60;3.92;;;;;;;;;;5004640;28;20518;-74
2023/05/31 05:50:21;;;;;;;15.20;4.10;;;;;;;;;;5005704;28;20030;-73
2023/05/31 05:52:48;;;;;;;15.48;4.43;;;;;;;;;;5002395;28;20041;-74
2023/05/31 05:55:14;;;;;;;14.52;3.97;;;;;;;;;;5011893;28;20477;-73
2023/05/31 05:57:40;;;;;;;11.32;3.38;;;;;;;;;;5014065;28;20025;-73
2023/05/31 06:00:11;;;;;;;7.68;3.88;;;;;;;;;;5013730;28;20037;-69
2023/05/31 06:02:38;;;;;;;9.10;3.37;;;;;;;;;;5005384;28;20133;-73
2023/05/31 06:05:07;;;;;;;7.35;3.33;;;;;;;;;;5014270;28;20414;-74
2023/05/31 06:07:33;;;;;;;8.85;3.22;;;;;;;;;;5006626;28;20033;-73
2023/05/31 06:10:02;;;;;;;8.65;3.28;;;;;;;;;;4996255;28;20038;-75
2023/05/31 06:12:30;;;;;;;4.03;2.63;;;;;;;;;;4988262;28;20518;-74
2023/05/31 06:14:58;;;;;;;10.48;2.85;;;;;;;;;;5007034;28;20044;-71
2023/05/31 06:17:25;;;;;;;10.70;3.80;;;;;;;;;;5011088;28;20038;-75
2023/05/31 06:19:54;;;;;;;14.07;3.15;;;;;;;;;;5011965;28;20263;-74
2023/05/31 06:22:19;;;;;;;9.60;3.28;;;;;;;;;;5019489;28;20029;-76
2023/05/31 06:24:47;;;;;;;7.88;2.92;;;;;;;;;;5026533;28;20038;-73
2023/05/31 06:27:14;;;;;;;10.93;4.25;;;;;;;;;;5010618;28;20306;-72
2023/05/31 06:29:40;;;;;;;8.35;3.17;;;;;;;;;;5014975;28;20040;-73
2023/05/31 06:32:06;;;;;;;7.40;2.55;;;;;;;;;;5008357;28;20038;-73
2023/05/31 06:34:33;;;;;;;6.65;2.63;;;;;;;;;;5025531;28;20030;-74
2023/05/31 06:37:00;;;;;;;12.48;3.53;;;;;;;;;;5007684;28;20111;-74
2023/05/31 06:39:28;;;;;;;26.67;7.28;;;;;;;;;;5015322;28;20030;-74
2023/05/31 06:41:59;;;;;;;7.20;3.05;;;;;;;;;;5008357;28;20025;-76
2023/05/31 06:44:25;;;;;;;12.70;3.25;;;;;;;;;;5014021;28;20801;-73
2023/05/31 06:46:50;;;;;;;14.15;4.00;;;;;;;;;;5016404;28;20033;-76
2023/05/31 06:49:16;;;;;;;6.65;2.55;;;;;;;;;;5017577;28;20053;-72
2023/05/31 06:51:42;;;;;;;10.27;2.95;;;;;;;;;;5009156;28;20547;-73
2023/05/31 06:54:08;;;;;;;6.43;2.67;;;;;;;;;;5012076;28;20050;-72
2023/05/31 06:56:35;;;;;;;9.00;3.15;;;;;;;;;;4996623;28;20204;-71
2023/05/31 06:59:03;;;;;;;7.22;2.35;;;;;;;;;;5010460;28;20040;-71
2023/05/31 07:01:29;;;;;;;6.82;3.97;;;;;;;;;;4992055;28;20034;-75
2023/05/31 07:03:57;;;;;;;10.70;2.65;;;;;;;;;;5012778;28;20033;-74
2023/05/31 07:06:27;;;;;;;5.93;2.90;;;;;;;;;;5012150;28;20032;-70
2023/05/31 07:08:55;;;;;;;5.18;2.20;;;;;;;;;;5009794;28;20069;-77
2023/05/31 07:11:21;;;;;;;8.85;3.70;;;;;;;;;;5017608;28;20046;-74
2023/05/31 07:13:48;;;;;;;7.90;2.58;;;;;;;;;;5005199;28;20034;-77
2023/05/31 07:16:18;;;;;;;7.85;2.40;;;;;;;;;;5006480;28;20042;-73
2023/05/31 07:18:47;;;;;;;8.13;3.13;;;;;;;;;;5013802;28;20045;-76
2023/05/31 07:21:17;;;;;;;5.72;2.00;;;;;;;;;;5009481;28;20049;-73
2023/05/31 07:23:43;;;;;;;8.10;2.83;;;;;;;;;;5008080;28;20083;-75
2023/05/31 07:26:08;;;;;;;7.35;3.35;;;;;;;;;;5007920;28;20049;-76
2023/05/31 07:28:34;;;;;;;11.40;2.83;;;;;;;;;;5009335;28;20109;-78
2023/05/31 07:31:05;;;;;;;4.25;2.10;;;;;;;;;;5015425;28;20026;-72
2023/05/31 07:33:36;;;;;;;7.38;2.03;;;;;;;;;;5003444;28;20370;-76
2023/05/31 07:36:02;;;;;;;7.35;2.25;;;;;;;;;;5015048;28;20038;-73
2023/05/31 07:38:30;;;;;;;5.82;2.03;;;;;;;;;;5015154;28;20241;-74
2023/05/31 07:41:00;;;;;;;7.72;2.60;;;;;;;;;;5006602;28;20038;-74
2023/05/31 07:43:29;;;;;;;6.10;2.17;;;;;;;;;;4981667;28;20572;-76
2023/05/31 07:45:58;;;;;;;6.65;2.25;;;;;;;;;;5016985;28;20037;-73
2023/05/31 07:48:25;;;;;;;7.00;2.25;;;;;;;;;;4951310;28;20050;-75
2023/05/31 07:50:55;;;;;;;6.50;2.33;;;;;;;;;;4956897;28;20049;-76
2023/05/31 07:53:21;;;;;;;11.32;2.55;;;;;;;;;;4962791;28;20052;-75
2023/05/31 07:55:47;;;;;;;7.32;2.63;;;;;;;;;;4926434;29;20063;-77
2023/05/31 07:58:13;;;;;;;10.07;2.53;;;;;;;;;;4928489;29;20205;-75
2023/05/31 08:00:41;;;;;;;6.55;2.65;;;;;;;;;;4923300;29;21411;-75
2023/05/31 08:03:08;;;;;;;7.88;2.05;;;;;;;;;;4932938;29;20086;-77
2023/05/31 08:05:35;;;;;;;7.65;2.55;;;;;;;;;;4938206;29;20036;-74
2023/05/31 08:08:02;;;;;;;8.88;2.50;;;;;;;;;;4937028;29;20050;-77
2023/05/31 08:10:31;;;;;;;8.30;2.30;;;;;;;;;;4944965;29;20148;-73
2023/05/31 08:12:57;;;;;;;8.25;2.97;;;;;;;;;;4926496;29;20671;-77
2023/05/31 08:15:22;;;;;;;8.73;3.17;;;;;;;;;;4907421;29;20044;-74
2023/05/31 08:17:48;;;;;;;7.57;2.15;;;;;;;;;;4930891;29;20039;-75
2023/05/31 08:20:16;;;;;;;6.15;2.25;;;;;;;;;;4934362;29;20126;-76
2023/05/31 08:22:44;;;;;;;8.07;2.28;;;;;;;;;;4922565;29;20056;-74
2023/05/31 08:25:16;;;;;;;7.90;2.70;;;;;;;;;;4934463;29;20039;-75
2023/05/31 08:27:42;;;;;;;5.78;1.95;;;;;;;;;;4938589;29;20488;-77
2023/05/31 08:30:12;;;;;;;7.18;2.10;;;;;;;;;;4940128;29;20043;-75
2023/05/31 08:32:38;;;;;;;6.80;2.08;;;;;;;;;;4958970;28;20478;-75
2023/05/31 08:35:06;;;;;;;8.60;2.72;;;;;;;;;;4977801;28;20034;-77
2023/05/31 08:37:35;;;;;;;7.13;2.00;;;;;;;;;;4989984;28;20052;-75
2023/05/31 08:40:06;;;;;;;6.53;2.42;;;;;;;;;;4972803;28;20038;-76
2023/05/31 08:42:50;;;;;;;7.80;2.95;;;;;;;;;;4968121;28;20642;-75
2023/05/31 08:45:17;;;;;;;9.05;2.08;;;;;;;;;;4973570;28;20045;-75
2023/05/31 08:48:07;;;;;;;7.65;2.15;;;;;;;;;;4990216;28;20678;-75
2023/05/31 08:50:34;;;;;;;7.70;2.33;;;;;;;;;;4968421;28;20470;-75
2023/05/31 08:53:00;;;;;;;6.95;2.20;;;;;;;;;;4971781;28;20188;-73
2023/05/31 08:55:28;;;;;;;34.22;6.22;;;;;;;;;;5006078;28;20041;-74
2023/05/31 08:57:57;;;;;;;4.97;2.17;;;;;;;;;;5001895;28;20045;-76
2023/05/31 09:00:24;;;;;;;6.25;2.17;;;;;;;;;;4986266;28;20050;-74
2023/05/31 09:02:53;;;;;;;7.45;2.40;;;;;;;;;;5000685;28;20446;-78
2023/05/31 09:05:20;;;;;;;8.70;2.60;;;;;;;;;;5014727;28;20796;-76
2023/05/31 09:07:49;;;;;;;8.55;2.33;;;;;;;;;;5002107;28;20064;-76
2023/05/31 09:10:19;;;;;;;9.32;2.58;;;;;;;;;;5007001;28;20049;-77
2023/05/31 09:12:50;;;;;;;5.68;1.92;;;;;;;;;;5008569;28;20081;-76
2023/05/31 09:15:18;;;;;;;;;;;;;;;;;;5008006;28;20505;-75
2023/05/31 09:17:48;;;;;;;69.35;10.95;;;;;;;;;;5003568;28;19984;-76
2023/05/31 09:20:14;;;;;;;8.57;2.22;;;;;;;;;;5008324;28;20076;-75
2023/05/31 09:22:39;;;;;;;16.35;3.30;;;;;;;;;;4997711;28;20050;-74
2023/05/31 09:25:06;;;;;;;9.18;2.22;;;;;;;;;;4994157;28;20034;-75
2023/05/31 09:27:39;;;;;;;4.28;2.15;;;;;;;;;;5002000;28;20085;-76
2023/05/31 09:30:14;;;;;;;6.65;1.90;;;;;;;;;;5003316;28;20184;-74
2023/05/31 09:32:53;;;;;;;5.55;2.50;;;;;;;;;;5000523;28;20030;-74
2023/05/31 09:35:27;;;;;;;5.78;2.25;;;;;;;;;;5000513;28;20041;-75
2023/05/31 09:37:53;;;;;;;5.40;2.40;;;;;;;;;;5005565;28;20042;-75
2023/05/31 09:40:28;;;;;;;6.93;2.45;;;;;;;;;;5005637;28;20029;-76
2023/05/31 09:42:55;;;;;;;6.28;2.40;;;;;;;;;;4999172;28;20694;-76
2023/05/31 09:45:21;;;;;;;6.63;2.10;;;;;;;;;;5005530;28;20026;-76
2023/05/31 09:47:48;;;;;;;4.45;1.85;;;;;;;;;;5020190;28;20096;-77
2023/05/31 09:50:21;;;;;;;9.50;2.30;;;;;;;;;;5005668;28;20095;-75
2023/05/31 09:52:54;;;;;;;7.00;2.25;;;;;;;;;;5007504;28;20057;-75
2023/05/31 09:55:21;;;;;;;7.45;2.17;;;;;;;;;;5004621;28;20529;-76
2023/05/31 09:57:48;;;;;;;6.75;1.92;;;;;;;;;;5003697;28;20093;-75
2023/05/31 10:00:17;;;;;;;3.92;1.80;;;;;;;;;;5001192;28;20025;-75
2023/05/31 10:02:45;;;;;;;8.27;2.40;;;;;;;;;;5007533;28;20501;-77
2023/05/31 10:05:15;;;;;;;10.02;2.25;;;;;;;;;;4976721;28;20034;-76
2023/05/31 10:07:42;;;;;;;6.50;2.63;;;;;;;;;;4981620;28;20842;-77
2023/05/31 10:10:09;;;;;;;5.30;2.47;;;;;;;;;;5001287;28;20486;-76
2023/05/31 10:12:42;;;;;;;7.75;2.35;;;;;;;;;;4997434;28;20057;-77
2023/05/31 10:15:12;;;;;;;7.18;2.70;;;;;;;;;;4994306;28;20037;-76
2023/05/31 10:17:57;;;;;;;4.25;1.88;;;;;;;;;;5003757;28;20026;-77
2023/05/31 10:20:28;;;;;;;6.95;2.22;;;;;;;;;;4993427;28;20030;-77
2023/05/31 10:23:02;;;;;;;6.22;2.00;;;;;;;;;;5004692;28;20038;-78
2023/05/31 10:25:31;;;;;;;7.25;2.40;;;;;;;;;;5001532;28;21359;-77
2023/05/31 10:28:01;;;;;;;4.07;2.00;;;;;;;;;;4993329;28;20064;-77
2023/05/31 10:30:54;;;;;;;7.22;3.00;;;;;;;;;;4987272;28;20037;-77
2023/05/31 10:33:30;;;;;;;7.47;2.95;;;;;;;;;;5002931;28;20760;-75
2023/05/31 10:36:01;;;;;;;6.80;2.05;;;;;;;;;;4999861;28;20116;-76
2023/05/31 10:38:38;;;;;;;9.02;2.60;;;;;;;;;;4996053;28;20042;-76
2023/05/31 10:41:33;;;;;;;6.95;2.10;;;;;;;;;;5000523;28;20025;-78
2023/05/31 10:44:05;;;;;;;7.05;1.90;;;;;;;;;;4981482;28;20074;-76
2023/05/31 10:46:41;;;;;;;5.03;2.58;;;;;;;;;;4993479;28;20140;-76
2023/05/31 10:49:10;;;;;;;6.63;1.77;;;;;;;;;;4993854;28;20033;-75
2023/05/31 10:51:45;;;;;;;6.30;1.95;;;;;;;;;;4992843;28;20088;-75
2023/05/31 10:54:28;;;;;;;9.05;2.20;;;;;;;;;;4983681;28;20465;-77
2023/05/31 10:56:59;;;;;;;6.45;1.92;;;;;;;;;;4999545;28;20119;-73
2023/05/31 10:59:38;;;;;;;5.70;1.80;;;;;;;;;;4989722;28;20117;-73
2023/05/31 11:02:09;;;;;;;5.35;1.90;;;;;;;;;;5000221;28;20386;-72
2023/05/31 11:04:35;;;;;;;4.40;2.17;;;;;;;;;;4994804;28;20045;-76
2023/05/31 11:07:22;;;;;;;5.45;1.95;;;;;;;;;;4995788;28;20404;-73
2023/05/31 11:09:59;;;;;;;3.30;2.03;;;;;;;;;;4993327;28;20359;-74
2023/05/31 11:12:40;;;;;;;6.18;2.00;;;;;;;;;;4998960;28;20095;-73
2023/05/31 11:15:13;;;;;;;5.55;1.90;;;;;;;;;;4995466;28;20026;-74
2023/05/31 11:17:45;;;;;;;5.72;1.77;;;;;;;;;;5000646;28;20477;-74
2023/05/31 11:20:19;;;;;;;6.35;2.10;;;;;;;;;;4998427;28;20034;-76
2023/05/31 11:23:17;;;;;;;11.85;2.00;;;;;;;;;;5014351;28;20394;-76
2023/05/31 11:26:15;;;;;;;5.03;1.77;;;;;;;;;;5003147;28;20071;-73
2023/05/31 11:29:03;;;;;;;3.80;1.63;;;;;;;;;;4999771;28;20113;-76
2023/05/31 11:31:58;;;;;;;5.75;1.70;;;;;;;;;;5010183;28;20065;-76
2023/05/31 11:34:34;;;;;;;5.10;2.05;;;;;;;;;;4994299;28;20018;-76
2023/05/31 11:37:03;;;;;;;4.88;1.50;;;;;;;;;;4994973;28;20030;-76
2023/05/31 11:39:29;;;;;;;6.82;1.92;;;;;;;;;;4995509;28;20032;-76
2023/05/31 11:42:00;;;;;;;5.90;1.58;;;;;;;;;;4993985;28;20040;-75
2023/05/31 11:44:32;;;;;;;10.00;2.08;;;;;;;;;;4992643;28;20327;-75
2023/05/31 11:47:05;;;;;;;1.98;1.20;;;;;;;;;;5006454;28;20057;-77
2023/05/31 11:49:34;;;;;;;3.65;1.52;;;;;;;;;;4997312;28;20323;-77
2023/05/31 11:52:04;;;;;;;6.50;1.52;;;;;;;;;;4996961;28;20041;-75
2023/05/31 11:54:32;;;;;;;3.60;1.42;;;;;;;;;;5000420;28;20513;-75
2023/05/31 11:57:04;;;;;;;3.55;1.10;;;;;;;;;;5000107;28;20034;-75
2023/05/31 11:59:34;;;;;;;4.32;1.40;;;;;;;;;;4997212;28;20023;-74
2023/05/31 12:02:01;;;;;;;4.00;1.10;;;;;;;;;;5012620;28;20027;-75
2023/05/31 12:04:37;;;;;;;6.20;2.03;;;;;;;;;;5000318;28;20034;-75
2023/05/31 12:07:04;;;;;;;2.33;1.00;;;;;;;;;;4998018;28;20030;-74
2023/05/31 12:09:30;;;;;;;4.60;1.90;;;;;;;;;;5001851;28;20021;-76
2023/05/31 12:12:00;;;;;;;2.53;1.17;;;;;;;;;;5000633;28;20041;-76
2023/05/31 12:14:26;;;;;;;5.63;2.00;;;;;;;;;;4991558;28;20479;-75
2023/05/31 12:16:53;;;;;;;3.65;1.63;;;;;;;;;;5001573;28;20121;-75
2023/05/31 12:19:20;;;;;;;4.70;1.25;;;;;;;;;;4993868;28;20468;-76
2023/05/31 12:21:47;;;;;;;2.78;1.35;;;;;;;;;;4995500;28;20127;-76
2023/05/31 12:24:15;;;;;;;5.10;1.33;;;;;;;;;;5004593;28;20115;-75
2023/05/31 12:26:44;;;;;;;2.75;1.30;;;;;;;;;;4997557;28;20645;-74
2023/05/31 12:29:11;;;;;;;7.28;1.30;;;;;;;;;;4988864;28;20038;-76
2023/05/31 12:31:42;;;;;;;6.35;1.40;;;;;;;;;;4991541;28;20129;-75
2023/05/31 12:34:17;;;;;;;2.80;1.30;;;;;;;;;;4993222;28;20095;-76
2023/05/31 12:36:45;;;;;;;4.30;1.58;;;;;;;;;;5001419;28;20083;-74
2023/05/31 12:39:24;;;;;;;4.63;1.10;;;;;;;;;;4996070;28;20033;-75
2023/05/31 12:41:51;;;;;;;2.75;1.33;;;;;;;;;;4994444;28;20694;-75
2023/05/31 12:44:21;;;;;;;4.85;1.63;;;;;;;;;;4981751;28;20355;-77
2023/05/31 12:46:48;;;;;;;4.70;1.58;;;;;;;;;;5016271;28;20374;-75
2023/05/31 12:49:25;;;;;;;3.80;0.90;;;;;;;;;;5002821;28;20100;-76
2023/05/31 12:52:08;;;;;;;3.38;0.90;;;;;;;;;;4994693;28;20111;-76
2023/05/31 12:54:38;;;;;;;4.82;1.05;;;;;;;;;;4994199;28;20054;-76
2023/05/31 12:57:08;;;;;;;5.45;1.40;;;;;;;;;;4996324;28;20038;-75
2023/05/31 12:59:34;;;;;;;2.65;1.20;;;;;;;;;;4997333;28;20061;-74
2023/05/31 13:02:01;;;;;;;3.63;1.10;;;;;;;;;;5000292;28;20026;-75
2023/05/31 13:04:27;;;;;;;3.72;1.35;;;;;;;;;;5001060;28;20663;-75
2023/05/31 13:06:53;;;;;;;1.80;1.05;;;;;;;;;;5001275;28;20041;-76
2023/05/31 13:09:19;;;;;;;9.68;1.38;;;;;;;;;;4998277;28;20034;-75
2023/05/31 13:11:48;;;;;;;3.25;1.13;;;;;;;;;;4996593;28;20037;-76
2023/05/31 13:14:14;;;;;;;8.55;1.50;;;;;;;;;;4995037;28;20038;-76
2023/05/31 13:16:41;;;;;;;3.70;1.40;;;;;;;;;;5003958;28;20564;-76
2023/05/31 13:19:07;;;;;;;1.20;0.80;;;;;;;;;;5008969;28;20053;-76
2023/05/31 13:21:37;;;;;;;5.20;0.90;;;;;;;;;;4999122;28;20038;-77
2023/05/31 13:24:06;;;;;;;3.53;1.10;;;;;;;;;;4994025;28;20071;-77
2023/05/31 13:26:33;;;;;;;5.10;1.20;;;;;;;;;;5003575;28;20120;-78
2023/05/31 13:29:02;;;;;;;2.38;1.10;;;;;;;;;;4998590;28;20033;-75
2023/05/31 13:31:28;;;;;;;3.05;1.17;;;;;;;;;;5011765;28;20031;-73
2023/05/31 13:33:57;;;;;;;1.88;0.90;;;;;;;;;;4995265;28;20371;-75
2023/05/31 13:36:26;;;;;;;4.45;0.90;;;;;;;;;;4997640;28;20090;-75
2023/05/31 13:39:01;;;;;;;2.35;1.10;;;;;;;;;;4999904;28;20026;-76
2023/05/31 13:41:30;;;;;;;3.80;1.40;;;;;;;;;;5000283;28;20050;-74
2023/05/31 13:43:59;;;;;;;3.20;0.90;;;;;;;;;;4999095;28;20033;-74
2023/05/31 13:46:26;;;;;;;3.17;1.45;;;;;;;;;;4997189;28;20054;-74
2023/05/31 13:48:55;;;;;;;4.57;1.27;;;;;;;;;;5000285;28;20022;-74
2023/05/31 13:51:22;;;;;;;4.32;1.38;;;;;;;;;;4995639;28;20034;-76
2023/05/31 13:53:49;;;;;;;2.75;1.40;;;;;;;;;;4995913;28;20052;-74
2023/05/31 13:56:15;;;;;;;5.47;1.23;;;;;;;;;;4997719;28;20029;-74
2023/05/31 13:58:47;;;;;;;3.15;1.08;;;;;;;;;;4996571;28;20490;-73
2023/05/31 14:01:19;;;;;;;4.38;1.30;;;;;;;;;;5000087;28;20526;-77
2023/05/31 14:03:46;;;;;;;2.80;1.38;;;;;;;;;;4995073;28;20033;-74
2023/05/31 14:06:13;;;;;;;2.67;1.13;;;;;;;;;;5002730;28;20029;-73
2023/05/31 14:08:42;;;;;;;3.60;1.00;;;;;;;;;;5004485;28;20045;-75
2023/05/31 14:11:17;;;;;;;3.38;0.90;;;;;;;;;;5005052;28;20036;-77
2023/05/31 14:13:43;;;;;;;2.50;1.20;;;;;;;;;;5002029;28;21405;-75
2023/05/31 14:16:18;;;;;;;2.80;1.10;;;;;;;;;;5000299;28;20042;-75
2023/05/31 14:18:44;;;;;;;4.65;1.17;;;;;;;;;;5006637;28;20506;-76
2023/05/31 14:21:11;;;;;;;2.35;1.23;;;;;;;;;;5008076;28;20666;-75
2023/05/31 14:23:36;;;;;;;5.22;1.42;;;;;;;;;;5001073;28;20034;-77
2023/05/31 14:26:01;;;;;;;7.70;1.40;;;;;;;;;;5002994;28;20096;-75
2023/05/31 14:28:27;;;;;;;1.27;0.98;;;;;;;;;;5007012;28;20048;-76
2023/05/31 14:30:53;;;;;;;4.45;1.27;;;;;;;;;;5008541;28;20030;-75
2023/05/31 14:33:19;;;;;;;4.82;1.30;;;;;;;;;;5004727;28;20034;-77
2023/05/31 14:35:45;;;;;;;2.38;0.93;;;;;;;;;;5000275;28;20018;-77
2023/05/31 14:38:14;;;;;;;5.05;1.20;;;;;;;;;;5005386;28;20171;-77
2023/05/31 14:40:39;;;;;;;4.47;1.70;;;;;;;;;;5014220;28;20045;-75
2023/05/31 14:43:13;;;;;;;6.32;1.60;;;;;;;;;;5015730;28;20089;-76
2023/05/31 14:45:38;;;;;;;3.45;1.40;;;;;;;;;;4996786;28;20478;-77
2023/05/31 14:48:04;;;;;;;3.70;1.48;;;;;;;;;;5004557;28;20030;-76
2023/05/31 14:50:30;;;;;;;3.45;1.17;;;;;;;;;;5012099;28;20509;-75